Schedule Details

Flight Number: ASXC27
Departure: Heydar Aliyev International Airport BAKU (UBBB) at 16:00
Arrival: Kathmandu (VNKT) at 21:15
Route: ABROL L850 DUKAN B449 DOLOS B475 UTAM A909 LEMOD/N0440F330 N644 REGET J145 DI M875 JHANG A466 SAMAR M890 CHG W35 ONOGI M890 SP/N0451F350 M890 JAL R594 LKN G598 PARSA SMR

Weather Information
UBBB 120600Z 20003KT CAVOK 08/07 Q1029 R88/190055 NOSIG
VNKT 120550Z 09003KT 6000 FEW020 19/09 Q1021 NOSIG

Schedule Frequency

Route Map